Gandys Beach, New Jersey
Current Conditions -  °F | °C
As of 4:54 AM on Wednesday 26 Nov 2014 (Local Time) from KMIV Reporting Station
Light Rain Light Rain  
Wind Chill: 41°   Ceiling: 7000
Heat Index: 44°   Visibility: 8mi
Dew Point: 40°   Wind: 6mph
Humidity: 85%   Direction: 80°E
Pressure: 30.1"   Gusts: NA
Location:  39.2857°N, 75.1626°W
Report Text: KMIV 260954Z AUTO 08005KT 8SM -RA OVC070 07/04 A3010 RMK AO2 SLP191 P0003 T00670044
Loading
Personal Weather Stations






























Interactive Weather Map New forecast layout! Learn more

10-Day Weather Forecast

Advertisements
Track Severe Weather on mobile